sensor_id;sensor_type;location;lat;lon;timestamp;pressure;altitude;pressure_sealevel;temperature;humidity
5780;BME280;2916;49.798;10.022;2022-08-19T00:01:21;97729.28;;;20.97;76.21
5780;BME280;2916;49.798;10.022;2022-08-19T00:03:48;97777.88;;;21.25;77.63
5780;BME280;2916;49.798;10.022;2022-08-19T00:06:16;97790.00;;;21.25;77.36
5780;BME280;2916;49.798;10.022;2022-08-19T00:08:43;97780.84;;;21.21;76.93
5780;BME280;2916;49.798;10.022;2022-08-19T00:11:11;97778.97;;;21.23;77.95
5780;BME280;2916;49.798;10.022;2022-08-19T00:13:40;97777.44;;;21.20;78.25
5780;BME280;2916;49.798;10.022;2022-08-19T00:16:07;97774.50;;;21.14;77.64
5780;BME280;2916;49.798;10.022;2022-08-19T00:18:35;97768.50;;;21.13;78.24
5780;BME280;2916;49.798;10.022;2022-08-19T00:21:02;97693.69;;;20.67;78.64
5780;BME280;2916;49.798;10.022;2022-08-19T00:23:34;97759.94;;;21.01;79.10
5780;BME280;2916;49.798;10.022;2022-08-19T00:26:03;97758.16;;;21.02;79.40
5780;BME280;2916;49.798;10.022;2022-08-19T00:28:30;97761.81;;;20.99;79.27
5780;BME280;2916;49.798;10.022;2022-08-19T00:30:59;97754.16;;;20.98;78.58
5780;BME280;2916;49.798;10.022;2022-08-19T00:33:28;97746.09;;;20.91;78.40
5780;BME280;2916;49.798;10.022;2022-08-19T00:35:59;97672.75;;;20.47;79.49
5780;BME280;2916;49.798;10.022;2022-08-19T00:38:27;97740.44;;;20.86;80.18
5780;BME280;2916;49.798;10.022;2022-08-19T00:40:56;97742.69;;;20.79;80.10
5780;BME280;2916;49.798;10.022;2022-08-19T00:43:25;97744.44;;;20.79;80.34
5780;BME280;2916;49.798;10.022;2022-08-19T00:45:54;97739.59;;;20.74;80.76
5780;BME280;2916;49.798;10.022;2022-08-19T00:48:23;97723.75;;;20.56;80.32
5780;BME280;2916;49.798;10.022;2022-08-19T00:50:52;97714.31;;;20.44;79.86
5780;BME280;2916;49.798;10.022;2022-08-19T00:53:26;97734.66;;;20.60;81.35
5780;BME280;2916;49.798;10.022;2022-08-19T00:55:58;97731.22;;;20.48;81.59
5780;BME280;2916;49.798;10.022;2022-08-19T00:58:30;97739.81;;;20.49;81.67
5780;BME280;2916;49.798;10.022;2022-08-19T01:00:59;97747.44;;;20.50;81.96
5780;BME280;2916;49.798;10.022;2022-08-19T01:03:28;97745.16;;;20.46;81.37
5780;BME280;2916;49.798;10.022;2022-08-19T01:05:55;97741.03;;;20.43;82.56
5780;BME280;2916;49.798;10.022;2022-08-19T01:08:23;97747.16;;;20.42;81.79
5780;BME280;2916;49.798;10.022;2022-08-19T01:10:55;97750.91;;;20.38;82.72
5780;BME280;2916;49.798;10.022;2022-08-19T01:13:28;97677.38;;;19.97;81.35
5780;BME280;2916;49.798;10.022;2022-08-19T01:16:01;97746.91;;;20.34;81.97
5780;BME280;2916;49.798;10.022;2022-08-19T01:18:35;97737.16;;;20.26;82.52
5780;BME280;2916;49.798;10.022;2022-08-19T01:21:14;97732.53;;;20.19;83.01
5780;BME280;2916;49.798;10.022;2022-08-19T01:23:45;97741.09;;;20.19;82.98
5780;BME280;2916;49.798;10.022;2022-08-19T01:26:20;97724.34;;;20.14;83.10
5780;BME280;2916;49.798;10.022;2022-08-19T01:28:50;97732.50;;;20.07;81.92
5780;BME280;2916;49.798;10.022;2022-08-19T01:31:22;97736.25;;;20.03;82.79
5780;BME280;2916;49.798;10.022;2022-08-19T01:33:53;97730.28;;;20.03;82.77
5780;BME280;2916;49.798;10.022;2022-08-19T01:36:27;97743.50;;;19.98;82.40
5780;BME280;2916;49.798;10.022;2022-08-19T01:38:59;97728.44;;;19.81;82.84
5780;BME280;2916;49.798;10.022;2022-08-19T01:41:27;97741.69;;;19.88;81.78
5780;BME280;2916;49.798;10.022;2022-08-19T01:43:54;97757.94;;;20.01;82.46
5780;BME280;2916;49.798;10.022;2022-08-19T01:46:22;97775.88;;;20.02;83.60
5780;BME280;2916;49.798;10.022;2022-08-19T01:48:49;97779.75;;;19.97;82.60
5780;BME280;2916;49.798;10.022;2022-08-19T01:51:17;97754.94;;;19.83;82.28
5780;BME280;2916;49.798;10.022;2022-08-19T01:53:47;97772.09;;;19.95;82.38
5780;BME280;2916;49.798;10.022;2022-08-19T01:56:16;97720.38;;;19.61;82.16
5780;BME280;2916;49.798;10.022;2022-08-19T01:58:49;97779.41;;;20.01;82.01
5780;BME280;2916;49.798;10.022;2022-08-19T02:01:19;97776.63;;;20.04;82.11
5780;BME280;2916;49.798;10.022;2022-08-19T02:03:46;97775.88;;;20.02;83.34
5780;BME280;2916;49.798;10.022;2022-08-19T02:06:14;97778.25;;;20.05;83.69
5780;BME280;2916;49.798;10.022;2022-08-19T02:08:43;97777.03;;;19.98;82.66
5780;BME280;2916;49.798;10.022;2022-08-19T02:11:21;97795.31;;;19.95;82.56
5780;BME280;2916;49.798;10.022;2022-08-19T02:13:49;97792.53;;;19.98;82.23
5780;BME280;2916;49.798;10.022;2022-08-19T02:16:18;97785.81;;;19.96;81.92
5780;BME280;2916;49.798;10.022;2022-08-19T02:18:46;97719.31;;;19.64;83.54
5780;BME280;2916;49.798;10.022;2022-08-19T02:21:14;97761.72;;;19.84;82.65
5780;BME280;2916;49.798;10.022;2022-08-19T02:23:42;97782.53;;;19.94;82.99
5780;BME280;2916;49.798;10.022;2022-08-19T02:26:12;97782.16;;;19.87;81.82
5780;BME280;2916;49.798;10.022;2022-08-19T02:28:41;97767.94;;;19.81;83.30
5780;BME280;2916;49.798;10.022;2022-08-19T02:31:10;97751.94;;;19.65;82.76
5780;BME280;2916;49.798;10.022;2022-08-19T02:33:38;97781.88;;;19.79;83.48
5780;BME280;2916;49.798;10.022;2022-08-19T02:36:08;97780.56;;;19.73;82.33
5780;BME280;2916;49.798;10.022;2022-08-19T02:38:36;97788.91;;;19.77;84.48
5780;BME280;2916;49.798;10.022;2022-08-19T02:41:11;97783.78;;;19.64;83.64
5780;BME280;2916;49.798;10.022;2022-08-19T02:43:38;97791.31;;;19.67;84.03
5780;BME280;2916;49.798;10.022;2022-08-19T02:46:14;97784.72;;;19.63;83.16
5780;BME280;2916;49.798;10.022;2022-08-19T02:48:47;97777.97;;;19.60;83.02
5780;BME280;2916;49.798;10.022;2022-08-19T02:51:20;97785.94;;;19.57;83.81
5780;BME280;2916;49.798;10.022;2022-08-19T02:53:48;97791.31;;;19.54;83.09
5780;BME280;2916;49.798;10.022;2022-08-19T02:56:15;97792.78;;;19.46;84.56
5780;BME280;2916;49.798;10.022;2022-08-19T02:58:42;97796.88;;;19.48;84.74
5780;BME280;2916;49.798;10.022;2022-08-19T03:01:19;97807.66;;;19.42;85.58
5780;BME280;2916;49.798;10.022;2022-08-19T03:03:47;97811.44;;;19.49;84.48
5780;BME280;2916;49.798;10.022;2022-08-19T03:06:16;97817.72;;;19.45;83.73
5780;BME280;2916;49.798;10.022;2022-08-19T03:08:46;97820.00;;;19.50;84.37
5780;BME280;2916;49.798;10.022;2022-08-19T03:11:16;97807.50;;;19.56;86.20
5780;BME280;2916;49.798;10.022;2022-08-19T03:13:43;97804.09;;;19.56;85.30
5780;BME280;2916;49.798;10.022;2022-08-19T03:16:12;97800.47;;;19.58;86.24
5780;BME280;2916;49.798;10.022;2022-08-19T03:18:40;97797.16;;;19.56;86.27
5780;BME280;2916;49.798;10.022;2022-08-19T03:21:07;97804.22;;;19.54;86.20
5780;BME280;2916;49.798;10.022;2022-08-19T03:23:35;97777.94;;;19.36;85.72
5780;BME280;2916;49.798;10.022;2022-08-19T03:26:05;97779.00;;;19.34;85.62
5780;BME280;2916;49.798;10.022;2022-08-19T03:28:33;97801.56;;;19.43;86.17
5780;BME280;2916;49.798;10.022;2022-08-19T03:31:05;97804.44;;;19.38;84.99
5780;BME280;2916;49.798;10.022;2022-08-19T03:33:34;97802.50;;;19.42;86.37
5780;BME280;2916;49.798;10.022;2022-08-19T03:36:06;97777.78;;;19.27;86.07
5780;BME280;2916;49.798;10.022;2022-08-19T03:38:36;97789.06;;;19.37;86.21
5780;BME280;2916;49.798;10.022;2022-08-19T03:41:05;97799.81;;;19.31;85.27
5780;BME280;2916;49.798;10.022;2022-08-19T03:43:36;97790.22;;;19.33;85.67
5780;BME280;2916;49.798;10.022;2022-08-19T03:46:07;97789.72;;;19.28;85.73
5780;BME280;2916;49.798;10.022;2022-08-19T03:48:37;97789.44;;;19.20;86.19
5780;BME280;2916;49.798;10.022;2022-08-19T03:51:05;97718.97;;;18.70;85.62
5780;BME280;2916;49.798;10.022;2022-08-19T03:53:34;97780.88;;;19.19;88.33
5780;BME280;2916;49.798;10.022;2022-08-19T03:56:02;97786.13;;;19.18;86.40
5780;BME280;2916;49.798;10.022;2022-08-19T03:58:30;97791.38;;;19.16;85.82
5780;BME280;2916;49.798;10.022;2022-08-19T04:00:57;97793.25;;;19.14;84.81
5780;BME280;2916;49.798;10.022;2022-08-19T04:03:25;97805.22;;;19.15;86.31
5780;BME280;2916;49.798;10.022;2022-08-19T04:05:54;97799.72;;;19.20;85.74
5780;BME280;2916;49.798;10.022;2022-08-19T04:08:21;97799.84;;;19.18;86.56
5780;BME280;2916;49.798;10.022;2022-08-19T04:10:49;97784.06;;;19.23;87.33
5780;BME280;2916;49.798;10.022;2022-08-19T04:13:17;97760.50;;;19.03;86.01
5780;BME280;2916;49.798;10.022;2022-08-19T04:15:46;97778.59;;;19.27;87.53
5780;BME280;2916;49.798;10.022;2022-08-19T04:18:14;97779.28;;;19.29;87.77
5780;BME280;2916;49.798;10.022;2022-08-19T04:20:46;97784.38;;;19.31;87.79
5780;BME280;2916;49.798;10.022;2022-08-19T04:23:15;97781.47;;;19.35;87.40
5780;BME280;2916;49.798;10.022;2022-08-19T04:25:44;97781.34;;;19.37;87.16
5780;BME280;2916;49.798;10.022;2022-08-19T04:28:13;97774.47;;;19.37;86.12
5780;BME280;2916;49.798;10.022;2022-08-19T04:30:43;97783.91;;;19.37;87.15
5780;BME280;2916;49.798;10.022;2022-08-19T04:33:12;97792.50;;;19.37;88.04
5780;BME280;2916;49.798;10.022;2022-08-19T04:35:45;97798.28;;;19.28;88.75
5780;BME280;2916;49.798;10.022;2022-08-19T04:38:15;97760.28;;;19.06;87.65
5780;BME280;2916;49.798;10.022;2022-08-19T04:40:45;97794.22;;;19.37;86.99
5780;BME280;2916;49.798;10.022;2022-08-19T04:43:32;97804.13;;;19.43;86.77
5780;BME280;2916;49.798;10.022;2022-08-19T04:46:05;97817.50;;;19.48;86.72
5780;BME280;2916;49.798;10.022;2022-08-19T04:48:33;97820.22;;;19.47;87.01
5780;BME280;2916;49.798;10.022;2022-08-19T04:51:01;97813.72;;;19.41;85.51
5780;BME280;2916;49.798;10.022;2022-08-19T04:53:36;97825.53;;;19.56;85.39
5780;BME280;2916;49.798;10.022;2022-08-19T04:56:06;97827.19;;;19.57;85.71
5780;BME280;2916;49.798;10.022;2022-08-19T04:58:35;97831.41;;;19.58;86.14
5780;BME280;2916;49.798;10.022;2022-08-19T05:01:04;97828.03;;;19.58;86.06
5780;BME280;2916;49.798;10.022;2022-08-19T05:03:32;97835.47;;;19.63;85.28
5780;BME280;2916;49.798;10.022;2022-08-19T05:06:06;97807.94;;;19.50;86.30
5780;BME280;2916;49.798;10.022;2022-08-19T05:08:37;97823.06;;;19.68;85.03
5780;BME280;2916;49.798;10.022;2022-08-19T05:11:10;97828.00;;;19.71;85.13
5780;BME280;2916;49.798;10.022;2022-08-19T05:13:38;97835.22;;;19.78;85.56
5780;BME280;2916;49.798;10.022;2022-08-19T05:16:05;97827.00;;;19.73;85.09
5780;BME280;2916;49.798;10.022;2022-08-19T05:18:33;97835.00;;;19.81;85.02
5780;BME280;2916;49.798;10.022;2022-08-19T05:21:19;97832.09;;;19.86;85.24
5780;BME280;2916;49.798;10.022;2022-08-19T05:24:07;97836.44;;;19.85;83.30
5780;BME280;2916;49.798;10.022;2022-08-19T05:26:35;97835.91;;;19.93;84.41
5780;BME280;2916;49.798;10.022;2022-08-19T05:29:03;97846.59;;;20.00;83.95
5780;BME280;2916;49.798;10.022;2022-08-19T05:31:30;97846.03;;;20.07;84.37
5780;BME280;2916;49.798;10.022;2022-08-19T05:33:58;97842.31;;;20.11;83.55
5780;BME280;2916;49.798;10.022;2022-08-19T05:36:26;97838.56;;;20.16;83.50
5780;BME280;2916;49.798;10.022;2022-08-19T05:38:53;97827.06;;;20.08;81.75
5780;BME280;2916;49.798;10.022;2022-08-19T05:41:22;97848.25;;;20.25;83.57
5780;BME280;2916;49.798;10.022;2022-08-19T05:43:55;97831.28;;;20.09;82.67
5780;BME280;2916;49.798;10.022;2022-08-19T05:46:23;97795.16;;;19.85;82.19
5780;BME280;2916;49.798;10.022;2022-08-19T05:48:50;97870.47;;;20.39;83.13
5780;BME280;2916;49.798;10.022;2022-08-19T05:51:17;97854.16;;;20.38;82.52
5780;BME280;2916;49.798;10.022;2022-08-19T05:53:44;97877.66;;;20.46;82.66
5780;BME280;2916;49.798;10.022;2022-08-19T05:56:15;97847.09;;;20.29;81.86
5780;BME280;2916;49.798;10.022;2022-08-19T05:58:45;97865.22;;;20.40;81.18
5780;BME280;2916;49.798;10.022;2022-08-19T06:01:15;97884.06;;;20.53;81.84
5780;BME280;2916;49.798;10.022;2022-08-19T06:03:44;97894.19;;;20.56;81.86
5780;BME280;2916;49.798;10.022;2022-08-19T06:06:15;97874.59;;;20.41;81.83
5780;BME280;2916;49.798;10.022;2022-08-19T06:08:43;97888.41;;;20.53;81.40
5780;BME280;2916;49.798;10.022;2022-08-19T06:11:22;97872.50;;;20.46;81.65
5780;BME280;2916;49.798;10.022;2022-08-19T06:13:54;97866.38;;;20.47;81.41
5780;BME280;2916;49.798;10.022;2022-08-19T06:16:22;97889.38;;;20.63;81.32
5780;BME280;2916;49.798;10.022;2022-08-19T06:18:51;97873.13;;;20.50;81.70
5780;BME280;2916;49.798;10.022;2022-08-19T06:21:23;97891.63;;;20.68;81.00
5780;BME280;2916;49.798;10.022;2022-08-19T06:23:53;97872.91;;;20.53;81.11
5780;BME280;2916;49.798;10.022;2022-08-19T06:26:21;97894.47;;;20.76;80.72
5780;BME280;2916;49.798;10.022;2022-08-19T06:28:50;97864.38;;;20.64;80.46
5780;BME280;2916;49.798;10.022;2022-08-19T06:31:25;97897.69;;;20.91;80.80
5780;BME280;2916;49.798;10.022;2022-08-19T06:33:53;97858.75;;;20.70;79.67
5780;BME280;2916;49.798;10.022;2022-08-19T06:36:24;97905.34;;;21.03;80.30
5780;BME280;2916;49.798;10.022;2022-08-19T06:38:53;97921.13;;;21.12;79.60
5780;BME280;2916;49.798;10.022;2022-08-19T06:41:20;97912.41;;;21.13;79.97
5780;BME280;2916;49.798;10.022;2022-08-19T06:43:47;97923.47;;;21.15;79.65
5780;BME280;2916;49.798;10.022;2022-08-19T06:46:17;97911.00;;;21.08;79.83
5780;BME280;2916;49.798;10.022;2022-08-19T06:48:44;97928.88;;;21.12;79.95
5780;BME280;2916;49.798;10.022;2022-08-19T06:51:13;97925.00;;;21.17;79.93
5780;BME280;2916;49.798;10.022;2022-08-19T06:53:44;97928.16;;;21.21;79.04
5780;BME280;2916;49.798;10.022;2022-08-19T06:56:14;97924.06;;;21.29;79.18
5780;BME280;2916;49.798;10.022;2022-08-19T06:58:41;97908.81;;;21.26;79.27
5780;BME280;2916;49.798;10.022;2022-08-19T07:01:09;97917.31;;;21.40;78.75
5780;BME280;2916;49.798;10.022;2022-08-19T07:03:39;97914.28;;;21.46;78.72
5780;BME280;2916;49.798;10.022;2022-08-19T07:06:13;97901.31;;;21.35;78.44
5780;BME280;2916;49.798;10.022;2022-08-19T07:08:44;97923.53;;;21.48;78.14
5780;BME280;2916;49.798;10.022;2022-08-19T07:11:15;97925.91;;;21.63;78.17
5780;BME280;2916;49.798;10.022;2022-08-19T07:13:43;97925.69;;;21.66;77.65
5780;BME280;2916;49.798;10.022;2022-08-19T07:16:15;97897.56;;;21.50;77.90
5780;BME280;2916;49.798;10.022;2022-08-19T07:18:44;97924.97;;;21.75;76.59
5780;BME280;2916;49.798;10.022;2022-08-19T07:21:18;97910.47;;;21.84;77.31
5780;BME280;2916;49.798;10.022;2022-08-19T07:26:18;97924.69;;;22.23;75.91
5780;BME280;2916;49.798;10.022;2022-08-19T07:28:46;97928.66;;;22.38;75.10
5780;BME280;2916;49.798;10.022;2022-08-19T07:31:17;97936.16;;;22.52;74.97
5780;BME280;2916;49.798;10.022;2022-08-19T07:33:48;97941.63;;;22.59;74.60
5780;BME280;2916;49.798;10.022;2022-08-19T07:36:19;97948.47;;;22.60;74.55
5780;BME280;2916;49.798;10.022;2022-08-19T07:38:49;97926.03;;;22.49;73.74
5780;BME280;2916;49.798;10.022;2022-08-19T07:41:22;97947.25;;;22.75;74.14
5780;BME280;2916;49.798;10.022;2022-08-19T07:43:50;97944.19;;;22.70;73.63
5780;BME280;2916;49.798;10.022;2022-08-19T07:46:19;97908.78;;;22.60;73.59
5780;BME280;2916;49.798;10.022;2022-08-19T07:48:51;97929.94;;;22.76;73.52
5780;BME280;2916;49.798;10.022;2022-08-19T07:51:20;97924.22;;;22.82;73.07
5780;BME280;2916;49.798;10.022;2022-08-19T07:53:49;97912.09;;;22.83;72.33
5780;BME280;2916;49.798;10.022;2022-08-19T07:56:18;97930.22;;;22.94;72.98
5780;BME280;2916;49.798;10.022;2022-08-19T07:58:48;97949.63;;;23.20;72.48
5780;BME280;2916;49.798;10.022;2022-08-19T08:01:19;97927.06;;;23.11;72.33
5780;BME280;2916;49.798;10.022;2022-08-19T08:03:49;97945.19;;;23.32;72.00
5780;BME280;2916;49.798;10.022;2022-08-19T08:06:35;97945.63;;;23.37;71.78
5780;BME280;2916;49.798;10.022;2022-08-19T08:09:24;97942.34;;;23.35;71.39
5780;BME280;2916;49.798;10.022;2022-08-19T08:11:56;97941.41;;;23.36;70.97
5780;BME280;2916;49.798;10.022;2022-08-19T08:14:30;97946.78;;;23.44;71.40
5780;BME280;2916;49.798;10.022;2022-08-19T08:16:58;97946.63;;;23.46;71.57
5780;BME280;2916;49.798;10.022;2022-08-19T08:19:27;97939.88;;;23.55;70.77
5780;BME280;2916;49.798;10.022;2022-08-19T08:21:57;97952.00;;;23.75;70.34
5780;BME280;2916;49.798;10.022;2022-08-19T08:24:25;97963.88;;;23.77;70.03
5780;BME280;2916;49.798;10.022;2022-08-19T08:26:53;97962.13;;;23.78;70.58
5780;BME280;2916;49.798;10.022;2022-08-19T08:29:20;97901.22;;;23.51;69.65
5780;BME280;2916;49.798;10.022;2022-08-19T08:31:48;97950.56;;;23.92;69.66
5780;BME280;2916;49.798;10.022;2022-08-19T08:34:15;97917.06;;;23.79;69.73
5780;BME280;2916;49.798;10.022;2022-08-19T08:36:46;97968.78;;;24.11;69.34
5780;BME280;2916;49.798;10.022;2022-08-19T08:39:16;97971.09;;;24.05;68.90
5780;BME280;2916;49.798;10.022;2022-08-19T08:41:51;97962.94;;;23.79;69.39
5780;BME280;2916;49.798;10.022;2022-08-19T08:44:25;97963.53;;;23.92;69.38
5780;BME280;2916;49.798;10.022;2022-08-19T08:47:00;97970.41;;;24.03;69.35
5780;BME280;2916;49.798;10.022;2022-08-19T08:49:33;97972.97;;;23.93;69.23
5780;BME280;2916;49.798;10.022;2022-08-19T08:52:07;97963.78;;;23.89;68.97
5780;BME280;2916;49.798;10.022;2022-08-19T08:54:40;97970.94;;;23.96;69.00
5780;BME280;2916;49.798;10.022;2022-08-19T08:57:15;97983.16;;;23.85;69.34
5780;BME280;2916;49.798;10.022;2022-08-19T08:59:47;97973.59;;;23.85;69.27
5780;BME280;2916;49.798;10.022;2022-08-19T09:02:16;97984.88;;;23.95;69.37
5780;BME280;2916;49.798;10.022;2022-08-19T09:04:44;97976.56;;;23.71;70.53
5780;BME280;2916;49.798;10.022;2022-08-19T09:07:31;97988.41;;;23.94;69.50
5780;BME280;2916;49.798;10.022;2022-08-19T09:10:10;97978.75;;;24.06;69.08
5780;BME280;2916;49.798;10.022;2022-08-19T09:12:53;97977.50;;;24.00;69.27
5780;BME280;2916;49.798;10.022;2022-08-19T09:15:32;97964.09;;;23.95;68.97
5780;BME280;2916;49.798;10.022;2022-08-19T09:18:03;97974.81;;;24.12;68.49
5780;BME280;2916;49.798;10.022;2022-08-19T09:20:32;97962.78;;;24.11;69.77
5780;BME280;2916;49.798;10.022;2022-08-19T09:23:01;97984.44;;;24.31;68.10
5780;BME280;2916;49.798;10.022;2022-08-19T09:25:28;97981.69;;;24.32;67.79
5780;BME280;2916;49.798;10.022;2022-08-19T09:27:56;97973.22;;;24.30;67.99
5780;BME280;2916;49.798;10.022;2022-08-19T09:30:31;97965.63;;;24.58;66.98
5780;BME280;2916;49.798;10.022;2022-08-19T09:33:00;97970.59;;;24.80;67.05
5780;BME280;2916;49.798;10.022;2022-08-19T09:35:29;97969.59;;;25.01;66.18
5780;BME280;2916;49.798;10.022;2022-08-19T09:37:58;97958.53;;;25.18;65.00
5780;BME280;2916;49.798;10.022;2022-08-19T09:40:29;97958.53;;;24.69;66.25
5780;BME280;2916;49.798;10.022;2022-08-19T09:42:57;97949.22;;;24.67;67.36
5780;BME280;2916;49.798;10.022;2022-08-19T09:45:28;97954.00;;;25.20;65.64
5780;BME280;2916;49.798;10.022;2022-08-19T09:47:56;97951.38;;;25.39;64.68
5780;BME280;2916;49.798;10.022;2022-08-19T09:50:24;97948.13;;;25.65;63.86
5780;BME280;2916;49.798;10.022;2022-08-19T09:52:52;97926.28;;;25.38;63.74
5780;BME280;2916;49.798;10.022;2022-08-19T09:55:22;97950.78;;;25.45;64.55
5780;BME280;2916;49.798;10.022;2022-08-19T09:57:53;97955.88;;;25.47;64.30
5780;BME280;2916;49.798;10.022;2022-08-19T10:00:21;97956.84;;;25.36;65.22
5780;BME280;2916;49.798;10.022;2022-08-19T10:02:48;97965.97;;;25.60;64.77
5780;BME280;2916;49.798;10.022;2022-08-19T10:05:15;97959.31;;;25.38;64.38
5780;BME280;2916;49.798;10.022;2022-08-19T10:07:59;97963.03;;;25.35;64.30
5780;BME280;2916;49.798;10.022;2022-08-19T10:10:27;97964.50;;;25.48;64.45
5780;BME280;2916;49.798;10.022;2022-08-19T10:12:55;97963.47;;;25.68;63.74
5780;BME280;2916;49.798;10.022;2022-08-19T10:15:22;97962.06;;;25.74;62.97
5780;BME280;2916;49.798;10.022;2022-08-19T10:17:49;97961.41;;;25.62;63.90
5780;BME280;2916;49.798;10.022;2022-08-19T10:20:16;97948.31;;;25.54;63.08
5780;BME280;2916;49.798;10.022;2022-08-19T10:22:43;97965.00;;;25.61;63.69
5780;BME280;2916;49.798;10.022;2022-08-19T10:25:11;97972.97;;;25.59;63.70
5780;BME280;2916;49.798;10.022;2022-08-19T10:27:42;97940.38;;;25.45;63.90
5780;BME280;2916;49.798;10.022;2022-08-19T10:30:12;97962.66;;;25.58;64.06
5780;BME280;2916;49.798;10.022;2022-08-19T10:32:40;97959.56;;;25.44;63.77
5780;BME280;2916;49.798;10.022;2022-08-19T10:35:07;97960.09;;;25.48;61.89
5780;BME280;2916;49.798;10.022;2022-08-19T10:37:36;97956.00;;;25.45;60.84
5780;BME280;2916;49.798;10.022;2022-08-19T10:40:05;97911.53;;;25.29;60.19
5780;BME280;2916;49.798;10.022;2022-08-19T10:42:34;97950.00;;;25.35;60.88
5780;BME280;2916;49.798;10.022;2022-08-19T10:45:03;97956.97;;;25.44;60.79
5780;BME280;2916;49.798;10.022;2022-08-19T10:47:34;97957.34;;;25.50;60.56
5780;BME280;2916;49.798;10.022;2022-08-19T10:50:01;97961.19;;;25.45;61.55
5780;BME280;2916;49.798;10.022;2022-08-19T10:52:50;97953.22;;;25.57;61.26
5780;BME280;2916;49.798;10.022;2022-08-19T10:55:21;97964.44;;;25.67;60.89
5780;BME280;2916;49.798;10.022;2022-08-19T10:58:11;97946.06;;;25.68;60.58
5780;BME280;2916;49.798;10.022;2022-08-19T11:00:39;97957.16;;;25.80;60.86
5780;BME280;2916;49.798;10.022;2022-08-19T11:03:08;97951.13;;;26.07;60.29
5780;BME280;2916;49.798;10.022;2022-08-19T11:05:36;97941.81;;;26.05;59.27
5780;BME280;2916;49.798;10.022;2022-08-19T11:08:04;97915.00;;;25.94;59.66
5780;BME280;2916;49.798;10.022;2022-08-19T11:10:33;97944.22;;;26.16;58.97
5780;BME280;2916;49.798;10.022;2022-08-19T11:13:00;97934.13;;;26.31;58.25
5780;BME280;2916;49.798;10.022;2022-08-19T11:15:28;97947.38;;;26.37;58.25
5780;BME280;2916;49.798;10.022;2022-08-19T11:17:55;97954.00;;;26.32;57.90
5780;BME280;2916;49.798;10.022;2022-08-19T11:20:23;97949.22;;;26.27;58.43
5780;BME280;2916;49.798;10.022;2022-08-19T11:22:52;97929.56;;;25.87;58.90
5780;BME280;2916;49.798;10.022;2022-08-19T11:25:19;97949.16;;;25.91;58.34
5780;BME280;2916;49.798;10.022;2022-08-19T11:27:48;97951.75;;;25.91;57.81
5780;BME280;2916;49.798;10.022;2022-08-19T11:30:16;97949.81;;;25.93;58.19
5780;BME280;2916;49.798;10.022;2022-08-19T11:32:44;97953.53;;;25.91;58.26
5780;BME280;2916;49.798;10.022;2022-08-19T11:35:11;97917.00;;;25.73;57.45
5780;BME280;2916;49.798;10.022;2022-08-19T11:37:39;97940.28;;;25.84;57.42
5780;BME280;2916;49.798;10.022;2022-08-19T11:40:08;97948.47;;;25.89;57.79
5780;BME280;2916;49.798;10.022;2022-08-19T11:42:35;97944.13;;;26.08;57.31
5780;BME280;2916;49.798;10.022;2022-08-19T11:45:20;97927.94;;;25.86;57.17
5780;BME280;2916;49.798;10.022;2022-08-19T11:47:47;97947.34;;;26.02;56.10
5780;BME280;2916;49.798;10.022;2022-08-19T11:50:15;97933.63;;;26.00;56.36
5780;BME280;2916;49.798;10.022;2022-08-19T11:52:45;97943.94;;;26.19;55.95
5780;BME280;2916;49.798;10.022;2022-08-19T11:55:13;97933.50;;;26.19;55.72
5780;BME280;2916;49.798;10.022;2022-08-19T11:57:40;97935.91;;;26.30;55.56
5780;BME280;2916;49.798;10.022;2022-08-19T12:00:10;97913.03;;;26.06;55.50
5780;BME280;2916;49.798;10.022;2022-08-19T12:02:39;97944.72;;;26.47;55.30
5780;BME280;2916;49.798;10.022;2022-08-19T12:05:07;97940.13;;;26.59;54.00
5780;BME280;2916;49.798;10.022;2022-08-19T12:07:35;97944.44;;;26.68;54.01
5780;BME280;2916;49.798;10.022;2022-08-19T12:10:04;97939.84;;;26.62;53.79
5780;BME280;2916;49.798;10.022;2022-08-19T12:12:31;97945.78;;;26.72;53.69
5780;BME280;2916;49.798;10.022;2022-08-19T12:14:58;97948.25;;;26.74;53.15
5780;BME280;2916;49.798;10.022;2022-08-19T12:17:26;97939.69;;;26.81;53.05
5780;BME280;2916;49.798;10.022;2022-08-19T12:19:54;97938.16;;;26.97;52.70
5780;BME280;2916;49.798;10.022;2022-08-19T12:22:22;97927.63;;;26.80;52.17
5780;BME280;2916;49.798;10.022;2022-08-19T12:24:49;97941.66;;;26.87;52.12
5780;BME280;2916;49.798;10.022;2022-08-19T12:27:19;97938.69;;;26.82;51.92
5780;BME280;2916;49.798;10.022;2022-08-19T12:29:46;97944.88;;;26.81;52.13
5780;BME280;2916;49.798;10.022;2022-08-19T12:32:15;97919.84;;;26.88;51.78
5780;BME280;2916;49.798;10.022;2022-08-19T12:34:42;97951.09;;;27.06;51.08
5780;BME280;2916;49.798;10.022;2022-08-19T12:37:10;97948.00;;;26.67;51.74
5780;BME280;2916;49.798;10.022;2022-08-19T12:39:40;97951.16;;;26.88;51.65
5780;BME280;2916;49.798;10.022;2022-08-19T12:42:09;97923.56;;;26.68;51.27
5780;BME280;2916;49.798;10.022;2022-08-19T12:44:39;97928.50;;;26.71;51.04
5780;BME280;2916;49.798;10.022;2022-08-19T12:47:09;97959.91;;;26.87;50.82
5780;BME280;2916;49.798;10.022;2022-08-19T12:49:37;97967.03;;;26.77;51.01
5780;BME280;2916;49.798;10.022;2022-08-19T12:52:06;97964.63;;;26.66;50.40
5780;BME280;2916;49.798;10.022;2022-08-19T12:54:34;97954.44;;;26.73;50.17
5780;BME280;2916;49.798;10.022;2022-08-19T12:57:06;97959.06;;;26.61;50.30
5780;BME280;2916;49.798;10.022;2022-08-19T12:59:34;97956.19;;;26.72;50.02
5780;BME280;2916;49.798;10.022;2022-08-19T13:02:04;97965.69;;;26.73;50.11
5780;BME280;2916;49.798;10.022;2022-08-19T13:04:31;97970.69;;;26.84;50.08
5780;BME280;2916;49.798;10.022;2022-08-19T13:07:00;97965.66;;;26.91;49.56
5780;BME280;2916;49.798;10.022;2022-08-19T13:09:27;97971.09;;;26.98;49.57
5780;BME280;2916;49.798;10.022;2022-08-19T13:11:55;97978.25;;;26.96;49.50
5780;BME280;2916;49.798;10.022;2022-08-19T13:14:22;97970.69;;;26.84;49.80
5780;BME280;2916;49.798;10.022;2022-08-19T13:16:49;97961.25;;;26.91;49.39
5780;BME280;2916;49.798;10.022;2022-08-19T13:19:18;97962.16;;;26.82;49.30
5780;BME280;2916;49.798;10.022;2022-08-19T13:21:50;97958.13;;;27.06;49.09
5780;BME280;2916;49.798;10.022;2022-08-19T13:24:18;97922.03;;;27.19;48.66
5780;BME280;2916;49.798;10.022;2022-08-19T13:26:45;97949.50;;;27.57;48.71